Time;durP1;ratioP1;P1;durP2;ratioP2;P2;SDS_P1;SDS_P2;PMS_P1;PMS_P2;Temp;Humidity;BMP_temperature;BMP_pressure;BME280_temperature;BME280_humidity;BME280_pressure;Samples;Min_cycle;Max_cycle;Signal;HPM_P1;HPM_P2
2022/07/25 00:01:10;;;;;;;;;5.75;5.00;;;;;25.06;55.75;101044.72;5068310;28;9591;-66
2022/07/25 00:03:37;;;;;;;;;8.25;6.25;;;;;25.04;55.86;101038.69;5069268;28;8833;-67
2022/07/25 00:06:04;;;;;;;;;5.00;5.00;;;;;25.04;55.75;101038.69;5064626;28;8964;-66
2022/07/25 00:08:31;;;;;;;;;5.75;4.75;;;;;25.01;55.65;101034.56;5067008;28;8810;-66
2022/07/25 00:10:57;;;;;;;;;7.00;7.00;;;;;24.98;55.50;101032.38;5064046;28;8903;-66
2022/07/25 00:13:24;;;;;;;;;7.50;7.00;;;;;24.86;55.05;101018.16;5052071;28;8964;-66
2022/07/25 00:15:50;;;;;;;;;7.25;7.25;;;;;24.79;55.41;101031.41;5063076;28;8826;-66
2022/07/25 00:18:17;;;;;;;;;6.00;6.00;;;;;24.82;55.18;101028.91;5069636;28;8920;-66
2022/07/25 00:20:44;;;;;;;;;6.50;6.50;;;;;24.85;54.82;101022.84;5059149;28;8949;-66
2022/07/25 00:23:10;;;;;;;;;4.00;4.00;;;;;24.86;54.60;101026.41;5071887;28;8827;-66
2022/07/25 00:25:36;;;;;;;;;5.00;5.00;;;;;24.84;54.41;101018.44;5065959;28;8838;-67
2022/07/25 00:28:03;;;;;;;;;5.75;5.75;;;;;24.82;54.47;101017.06;5065106;28;8834;-66
2022/07/25 00:30:29;;;;;;;;;4.25;4.25;;;;;24.79;54.66;101009.38;5064606;28;8963;-67
2022/07/25 00:32:56;;;;;;;;;6.00;6.00;;;;;24.76;54.64;101009.97;5065698;28;8912;-67
2022/07/25 00:35:23;;;;;;;;;6.00;5.00;;;;;24.70;54.60;100998.16;5069962;28;8819;-66
2022/07/25 00:37:49;;;;;;;;;6.25;5.00;;;;;24.65;54.45;100995.44;5061478;28;8955;-67
2022/07/25 00:40:16;;;;;;;;;6.75;5.00;;;;;24.60;54.60;100978.97;5060532;28;8891;-66
2022/07/25 00:42:42;;;;;;;;;6.25;5.00;;;;;24.58;54.53;100972.91;5071106;28;8953;-66
2022/07/25 00:45:09;;;;;;;;;7.00;5.50;;;;;24.54;54.32;100980.91;5058762;28;8887;-66
2022/07/25 00:47:36;;;;;;;;;5.00;5.00;;;;;24.52;54.22;100982.31;5067017;28;8815;-66
2022/07/25 00:50:03;;;;;;;;;8.75;6.00;;;;;24.48;53.99;100979.28;5057094;28;8857;-66
2022/07/25 00:52:29;;;;;;;;;4.75;4.75;;;;;24.46;53.86;100973.25;5070556;28;8850;-66
2022/07/25 00:54:56;;;;;;;;;5.50;5.50;;;;;24.44;53.50;100972.72;5059878;28;8865;-66
2022/07/25 00:57:22;;;;;;;;;4.25;4.25;;;;;24.43;53.68;100971.06;5067741;28;8936;-66
2022/07/25 00:59:49;;;;;;;;;6.50;5.00;;;;;24.42;53.64;100967.47;5068758;28;8820;-65
2022/07/25 01:02:15;;;;;;;;;4.25;4.25;;;;;24.44;53.63;100961.72;5065354;28;8808;-66
2022/07/25 01:04:42;;;;;;;;;4.00;4.00;;;;;24.44;53.84;100960.88;5066005;28;8877;-66
2022/07/25 01:07:08;;;;;;;;;5.75;5.75;;;;;24.41;54.01;100949.31;5068171;28;8880;-67
2022/07/25 01:09:35;;;;;;;;;6.75;5.50;;;;;24.40;54.09;100946.88;5060657;28;8900;-67
2022/07/25 01:12:02;;;;;;;;;5.00;5.00;;;;;24.40;54.11;100944.94;5062450;28;8887;-67
2022/07/25 01:14:29;;;;;;;;;8.25;6.50;;;;;24.37;54.37;100939.16;5067190;28;8839;-67
2022/07/25 01:16:56;;;;;;;;;7.25;6.00;;;;;24.36;54.25;100940.25;5061745;28;8937;-67
2022/07/25 01:19:22;;;;;;;;;9.50;6.75;;;;;24.35;54.25;100933.94;5069162;28;8936;-66
2022/07/25 01:21:49;;;;;;;;;8.50;5.25;;;;;24.34;54.52;100931.44;5064554;28;8884;-65
2022/07/25 01:24:16;;;;;;;;;5.00;4.00;;;;;24.34;54.52;100931.44;5062083;28;8848;-66
2022/07/25 01:26:42;;;;;;;;;4.00;4.00;;;;;24.34;54.45;100932.28;5050313;28;9590;-66
2022/07/25 01:29:09;;;;;;;;;6.00;5.75;;;;;24.33;54.47;100936.13;5050931;28;8825;-66
2022/07/25 01:31:35;;;;;;;;;6.50;5.50;;;;;24.34;54.49;100928.69;5050262;28;8845;-66
2022/07/25 01:34:02;;;;;;;;;7.00;7.00;;;;;24.32;54.47;100940.00;5050289;28;8876;-66
2022/07/25 01:36:29;;;;;;;;;4.25;4.25;;;;;24.30;54.56;100930.38;5050137;28;8817;-66
2022/07/25 01:38:55;;;;;;;;;4.75;4.75;;;;;24.27;54.72;100930.97;5050218;28;8805;-66
2022/07/25 01:41:22;;;;;;;;;5.25;4.25;;;;;24.26;54.88;100932.06;5050218;28;8982;-66
2022/07/25 01:43:49;;;;;;;;;7.25;6.00;;;;;24.23;55.00;100927.97;5054016;28;8827;-66
2022/07/25 01:46:15;;;;;;;;;6.50;5.00;;;;;24.22;54.94;100914.47;5061541;28;8945;-66
2022/07/25 01:48:42;;;;;;;;;6.67;6.67;;;;;24.20;54.97;100911.19;5062602;28;8920;-66
2022/07/25 01:51:09;;;;;;;;;6.00;6.00;;;;;24.16;54.87;100906.25;5063483;28;8811;-66
2022/07/25 01:53:36;;;;;;;;;6.00;6.00;;;;;24.15;54.92;100899.13;5063716;28;8813;-66
2022/07/25 01:56:07;;;;;;;;;5.75;5.00;;;;;24.11;55.04;100892.53;5067260;28;8819;-66
2022/07/25 01:58:35;;;;;;;;;5.00;5.00;;;;;24.11;55.00;100889.78;5069992;28;8807;-66
2022/07/25 02:01:02;;;;;;;;;8.50;6.00;;;;;24.12;55.34;100888.69;5068244;28;8831;-66
2022/07/25 02:03:28;;;;;;;;;4.25;4.25;;;;;24.11;55.36;100881.53;5057980;28;9505;-66
2022/07/25 02:06:00;;;;;;;;;5.25;5.25;;;;;24.11;55.36;100880.72;5066472;28;8815;-66
2022/07/25 02:08:28;;;;;;;;;5.50;5.50;;;;;24.09;55.49;100872.72;5068426;28;8815;-66
2022/07/25 02:10:56;;;;;;;;;7.50;7.25;;;;;24.04;55.59;100871.94;5074136;28;8897;-66
2022/07/25 02:13:23;;;;;;;;;7.00;7.00;;;;;24.01;55.74;100872.50;5068985;28;8957;-66
2022/07/25 02:15:50;;;;;;;;;5.75;5.75;;;;;23.99;55.67;100864.56;5064222;28;9742;-66
2022/07/25 02:18:16;;;;;;;;;5.50;5.50;;;;;23.98;55.68;100862.06;5062189;28;8810;-66
2022/07/25 02:20:43;;;;;;;;;5.75;5.75;;;;;23.96;55.62;100856.03;5071032;28;8826;-66
2022/07/25 02:23:09;;;;;;;;;7.00;6.50;;;;;23.94;55.77;100850.81;5070819;28;8946;-66
2022/07/25 02:25:36;;;;;;;;;6.00;4.75;;;;;23.92;55.78;100842.84;5070331;28;8815;-66
2022/07/25 02:28:03;;;;;;;;;6.50;5.50;;;;;23.91;55.94;100834.91;5068115;28;8826;-66
2022/07/25 02:30:29;;;;;;;;;4.50;4.50;;;;;23.91;56.02;100832.97;5069016;28;8941;-66
2022/07/25 02:32:56;;;;;;;;;5.00;5.00;;;;;23.90;56.03;100839.59;5064744;28;8904;-66
2022/07/25 02:35:22;;;;;;;;;4.25;4.00;;;;;23.89;56.12;100835.16;5057838;28;8842;-65
2022/07/25 02:37:49;;;;;;;;;5.75;4.00;;;;;23.87;56.36;100831.91;5065670;28;8831;-65
2022/07/25 02:40:15;;;;;;;;;6.00;5.00;;;;;23.87;56.48;100840.16;5073483;28;8854;-66
2022/07/25 02:42:42;;;;;;;;;4.50;4.50;;;;;23.87;56.62;100829.16;5073620;28;8834;-66
2022/07/25 02:45:10;;;;;;;;;5.75;5.25;;;;;23.86;56.66;100826.66;5065830;28;8810;-66
2022/07/25 02:47:37;;;;;;;;;3.75;3.75;;;;;23.84;56.99;100824.22;5064903;28;8914;-66
2022/07/25 02:50:04;;;;;;;;;5.25;5.25;;;;;23.82;57.09;100817.34;5070487;28;8868;-66
2022/07/25 02:52:30;;;;;;;;;6.00;5.75;;;;;23.82;57.39;100820.09;5069109;28;8835;-67
2022/07/25 02:54:57;;;;;;;;;5.75;5.75;;;;;23.80;57.61;100825.06;5069610;28;8934;-67
2022/07/25 02:57:23;;;;;;;;;4.00;4.00;;;;;23.79;57.76;100831.69;5071544;28;8811;-67
2022/07/25 02:59:50;;;;;;;;;6.75;5.00;;;;;23.77;57.90;100820.94;5062268;28;8825;-67
2022/07/25 03:02:17;;;;;;;;;7.00;6.75;;;;;23.73;58.04;100819.88;5060836;28;9518;-67
2022/07/25 03:04:43;;;;;;;;;7.00;5.75;;;;;23.67;58.31;100808.09;5062639;28;8838;-67
2022/07/25 03:07:09;;;;;;;;;5.25;4.00;;;;;23.65;58.47;100815.78;5071491;28;8838;-67
2022/07/25 03:09:36;;;;;;;;;6.25;6.25;;;;;23.65;58.55;100817.69;5072899;28;8819;-67
2022/07/25 03:12:03;;;;;;;;;6.00;5.75;;;;;23.61;58.73;100809.16;5071028;28;8816;-67
2022/07/25 03:14:29;;;;;;;;;6.50;6.50;;;;;23.55;59.05;100804.81;5064078;28;9506;-67
2022/07/25 03:16:56;;;;;;;;;4.50;4.50;;;;;23.54;59.26;100808.69;5064733;28;8799;-67
2022/07/25 03:19:22;;;;;;;;;3.75;3.75;;;;;23.51;59.25;100805.66;5069414;28;8831;-67
2022/07/25 03:21:49;;;;;;;;;5.25;5.25;;;;;23.50;59.38;100807.59;5067865;28;8896;-67
2022/07/25 03:24:15;;;;;;;;;8.50;7.50;;;;;23.51;59.34;100802.91;5055533;28;8843;-67
2022/07/25 03:26:41;;;;;;;;;6.25;6.25;;;;;23.51;59.53;100802.91;5071263;28;8972;-67
2022/07/25 03:29:08;;;;;;;;;6.50;6.50;;;;;23.49;59.44;100796.88;5068752;28;8831;-67
2022/07/25 03:31:34;;;;;;;;;7.25;7.25;;;;;23.49;59.69;100808.69;5071530;28;8929;-67
2022/07/25 03:34:01;;;;;;;;;7.50;5.25;;;;;23.48;59.45;100792.47;5061645;28;8956;-67
2022/07/25 03:36:28;;;;;;;;;5.75;5.75;;;;;23.47;59.44;100804.59;5071420;28;8811;-67
2022/07/25 03:38:55;;;;;;;;;7.00;7.00;;;;;23.45;59.73;100797.41;5064541;28;8838;-68
2022/07/25 03:41:21;;;;;;;;;6.75;6.75;;;;;23.43;59.81;100790.59;5071842;28;8946;-68
2022/07/25 03:43:48;;;;;;;;;7.25;7.25;;;;;23.42;59.72;100798.00;5060459;28;8923;-67
2022/07/25 03:46:14;;;;;;;;;6.75;5.25;;;;;23.41;59.74;100806.50;5059046;28;8907;-67
2022/07/25 03:48:41;;;;;;;;;8.50;6.50;;;;;23.39;59.64;100808.72;5067262;28;8827;-68
2022/07/25 03:51:07;;;;;;;;;8.00;6.50;;;;;23.37;59.80;100803.50;5063369;28;8835;-68
2022/07/25 03:54:00;;;;;;;;;6.50;4.50;;;;;23.37;59.71;100800.75;5066873;28;8864;-67
2022/07/25 03:56:21;;;;;;;;;5.25;5.25;;;;;23.37;59.62;100800.75;5069844;28;9526;-67
2022/07/25 03:58:47;;;;;;;;;7.25;5.00;;;;;23.37;59.44;100799.94;5069666;28;8850;-68
2022/07/25 04:01:14;;;;;;;;;6.25;6.25;;;;;23.37;59.35;100813.66;5060935;28;8811;-67
2022/07/25 04:03:40;;;;;;;;;8.50;8.50;;;;;23.36;59.27;100812.84;5065365;28;8833;-67
2022/07/25 04:06:09;;;;;;;;;5.00;5.00;;;;;23.37;59.40;100819.97;5062568;28;8930;-67
2022/07/25 04:08:36;;;;;;;;;8.25;6.75;;;;;23.38;59.51;100815.34;5067929;28;8823;-67
2022/07/25 04:11:02;;;;;;;;;9.75;9.25;;;;;23.39;59.59;100816.97;5064150;28;8873;-67
2022/07/25 04:13:29;;;;;;;;;10.00;10.00;;;;;23.36;59.86;100814.78;5067762;28;11316;-67
2022/07/25 04:15:55;;;;;;;;;5.50;5.50;;;;;23.37;59.82;100803.50;5059211;28;9637;-67
2022/07/25 04:18:23;;;;;;;;;7.75;4.75;;;;;23.38;59.70;100794.19;5055845;28;8824;-68
2022/07/25 04:20:54;;;;;;;;;8.00;7.00;;;;;23.39;59.82;100805.97;5057446;28;9501;-67
2022/07/25 04:23:20;;;;;;;;;8.00;8.00;;;;;23.38;59.76;100809.84;5069650;28;8831;-67
2022/07/25 04:25:47;;;;;;;;;7.50;7.50;;;;;23.36;59.78;100809.28;5064025;28;9655;-67
2022/07/25 04:28:13;;;;;;;;;9.25;8.00;;;;;23.35;59.80;100800.22;5055632;28;8853;-67
2022/07/25 04:30:39;;;;;;;;;8.50;8.50;;;;;23.33;59.58;100801.59;5065063;28;8946;-67
2022/07/25 04:33:06;;;;;;;;;8.00;8.00;;;;;23.31;59.33;100803.81;5071286;28;8962;-67
2022/07/25 04:35:32;;;;;;;;;6.00;6.00;;;;;23.31;59.36;100799.16;5071241;28;8847;-67
2022/07/25 04:37:59;;;;;;;;;6.00;5.00;;;;;23.29;59.11;100792.28;5064242;28;8833;-67
2022/07/25 04:40:25;;;;;;;;;6.00;4.50;;;;;23.28;58.85;100787.88;5064856;28;8812;-67
2022/07/25 04:42:51;;;;;;;;;6.00;6.00;;;;;23.28;58.67;100788.72;5061203;28;8831;-66
2022/07/25 04:45:18;;;;;;;;;8.75;7.50;;;;;23.27;58.33;100781.56;5068834;28;8851;-67
2022/07/25 04:47:45;;;;;;;;;5.75;5.75;;;;;23.27;58.15;100780.75;5057776;28;8855;-67
2022/07/25 04:50:12;;;;;;;;;8.25;7.75;;;;;23.24;57.97;100778.56;5070412;28;8819;-66
2022/07/25 04:52:38;;;;;;;;;9.75;9.50;;;;;23.22;57.85;100778.03;5072158;28;8814;-67
2022/07/25 04:55:05;;;;;;;;;10.00;10.00;;;;;23.21;57.82;100779.94;5065897;28;8837;-66
2022/07/25 04:57:32;;;;;;;;;11.00;10.00;;;;;23.20;57.91;100781.88;5065034;28;8815;-66
2022/07/25 04:59:58;;;;;;;;;7.25;6.50;;;;;23.17;57.64;100776.97;5066110;28;8898;-65
2022/07/25 05:02:25;;;;;;;;;8.00;8.00;;;;;23.17;57.74;100770.63;5064953;28;8822;-65
2022/07/25 05:04:52;;;;;;;;;8.00;7.75;;;;;23.16;57.52;100783.53;5070497;28;8839;-65
2022/07/25 05:07:18;;;;;;;;;9.00;9.00;;;;;23.17;57.24;100782.44;5064535;28;8821;-65
2022/07/25 05:09:46;;;;;;;;;6.67;5.33;;;;;23.19;57.17;100787.66;5063291;28;8952;-66
2022/07/25 05:12:13;;;;;;;;;9.25;8.00;;;;;23.19;56.97;100777.47;5069745;28;8893;-65
2022/07/25 05:14:39;;;;;;;;;6.00;5.00;;;;;23.20;57.02;100775.56;5063833;28;8868;-66
2022/07/25 05:17:06;;;;;;;;;8.75;8.75;;;;;23.17;56.64;100774.22;5061780;28;9508;-65
2022/07/25 05:19:32;;;;;;;;;11.25;9.75;;;;;23.17;56.48;100782.44;5071166;28;8846;-65
2022/07/25 05:21:59;;;;;;;;;12.00;9.25;;;;;23.17;56.43;100789.84;5062858;28;8938;-66
2022/07/25 05:24:25;;;;;;;;;7.00;7.00;;;;;23.23;56.42;100785.16;5066778;28;8838;-65
2022/07/25 05:26:52;;;;;;;;;7.25;7.25;;;;;23.25;56.59;100775.53;5057299;28;8814;-65
2022/07/25 05:29:19;;;;;;;;;3.00;3.00;;;;;23.27;56.26;100778.84;5060592;28;8824;-65
2022/07/25 05:31:45;;;;;;;;;7.25;6.75;;;;;23.31;55.88;100781.84;5065967;28;8915;-65
2022/07/25 05:34:12;;;;;;;;;10.00;8.75;;;;;23.34;55.84;100786.78;5066046;28;8868;-67
2022/07/25 05:36:38;;;;;;;;;5.75;5.75;;;;;23.37;55.79;100788.94;5060117;28;8965;-66
2022/07/25 05:39:10;;;;;;;;;6.50;4.25;;;;;23.39;55.95;100789.50;5059497;28;8815;-67
2022/07/25 05:41:37;;;;;;;;;5.00;4.75;;;;;23.46;56.13;100790.03;5060465;28;8819;-67
2022/07/25 05:44:03;;;;;;;;;5.00;5.00;;;;;23.53;55.60;100793.28;5069755;28;8863;-66
2022/07/25 05:46:32;;;;;;;;;6.50;6.00;;;;;23.62;55.00;100785.28;5056322;28;8823;-67
2022/07/25 05:48:58;;;;;;;;;6.00;4.50;;;;;23.64;54.33;100775.63;5066491;28;9538;-66
2022/07/25 05:51:25;;;;;;;;;7.00;6.00;;;;;23.65;53.69;100780.06;5056678;28;8833;-65
2022/07/25 05:53:53;;;;;;;;;6.50;6.50;;;;;23.65;53.50;100780.06;5067255;28;8898;-66
2022/07/25 05:56:19;;;;;;;;;6.25;6.25;;;;;23.67;53.19;100788.84;5059571;28;8911;-66
2022/07/25 05:58:46;;;;;;;;;5.00;5.00;;;;;23.63;53.39;100782.25;5054746;28;9591;-65
2022/07/25 06:01:14;;;;;;;;;6.50;6.50;;;;;23.60;53.10;100793.78;5062621;28;8868;-67
2022/07/25 06:03:41;;;;;;;;;3.00;3.00;;;;;23.56;53.07;100791.91;5068584;28;8822;-66
2022/07/25 06:06:08;;;;;;;;;4.00;4.00;;;;;23.59;53.31;100785.84;5052568;28;8822;-66
2022/07/25 06:08:35;;;;;;;;;5.00;5.00;;;;;23.57;53.43;100774.28;5081545;28;9523;-66
2022/07/25 06:11:03;;;;;;;;;4.50;3.25;;;;;23.57;53.56;100775.13;5090793;28;8828;-66
2022/07/25 06:13:30;;;;;;;;;4.50;4.50;;;;;23.59;53.22;100783.09;5065946;28;8824;-67
2022/07/25 06:16:00;;;;;;;;;4.00;3.75;;;;;23.60;53.53;100788.28;5061112;28;8834;-65
2022/07/25 06:18:27;;;;;;;;;3.50;3.50;;;;;23.62;53.22;100794.34;5060036;28;9502;-65
2022/07/25 06:20:53;;;;;;;;;2.50;2.50;;;;;23.67;53.19;100790.78;5070228;28;8819;-66
2022/07/25 06:23:20;;;;;;;;;4.00;4.00;;;;;23.72;53.29;100798.16;5065888;28;8914;-67
2022/07/25 06:25:47;;;;;;;;;2.25;2.00;;;;;23.68;53.06;100804.22;5057730;28;8846;-66
2022/07/25 06:28:16;;;;;;;;;3.00;3.00;;;;;23.61;53.30;100802.84;5064243;28;8966;-66
2022/07/25 06:30:44;;;;;;;;;3.00;1.75;;;;;23.57;53.19;100788.84;5062547;28;8837;-66
2022/07/25 06:33:11;;;;;;;;;1.00;1.00;;;;;23.57;53.39;100777.84;5054764;28;8813;-66
2022/07/25 06:35:38;;;;;;;;;2.25;2.25;;;;;23.57;53.70;100782.53;5051891;28;8875;-67
2022/07/25 06:38:04;;;;;;;;;2.75;1.00;;;;;23.48;53.91;100774.06;5050215;28;9277;-66
2022/07/25 06:40:31;;;;;;;;;1.00;1.00;;;;;23.39;54.51;100773.84;5050110;28;8837;-66
2022/07/25 06:42:57;;;;;;;;;2.00;2.00;;;;;23.34;54.73;100797.78;5050622;28;8963;-66
2022/07/25 06:45:24;;;;;;;;;2.75;2.00;;;;;23.28;55.29;100796.13;5069166;28;8880;-66
2022/07/25 06:47:51;;;;;;;;;1.00;1.00;;;;;23.27;55.45;100799.97;5070175;28;8831;-66
2022/07/25 06:50:17;;;;;;;;;2.00;2.00;;;;;23.26;55.92;100795.59;5070385;28;8815;-66
2022/07/25 06:52:46;;;;;;;;;2.00;2.00;;;;;23.27;56.09;100791.75;5070210;28;8839;-66
2022/07/25 06:55:14;;;;;;;;;2.00;0.50;;;;;23.29;56.34;100787.59;5073768;28;8830;-66
2022/07/25 06:57:42;;;;;;;;;2.00;2.00;;;;;23.26;56.46;100798.34;5071140;28;8833;-65
2022/07/25 07:00:11;;;;;;;;;3.00;3.00;;;;;23.21;56.64;100793.66;5053641;28;8837;-65
2022/07/25 07:02:49;;;;;;;;;1.00;1.00;;;;;23.16;56.86;100804.69;5054108;28;8818;-66
2022/07/25 07:05:16;;;;;;;;;1.00;1.00;;;;;23.12;57.14;100798.91;5052504;28;8830;-66
2022/07/25 07:07:43;;;;;;;;;1.00;1.00;;;;;23.13;57.06;100795.09;5058899;28;8884;-67
2022/07/25 07:10:13;;;;;;;;;2.00;1.00;;;;;23.14;57.25;100804.97;5073982;28;8807;-65
2022/07/25 07:12:40;;;;;;;;;0.00;0.00;;;;;23.10;57.65;100797.56;5074039;28;8819;-66
2022/07/25 07:15:06;;;;;;;;;1.00;1.00;;;;;23.07;57.77;100798.94;5073968;28;8877;-65
2022/07/25 07:17:33;;;;;;;;;1.00;1.00;;;;;23.08;58.04;100803.31;5073864;28;8807;-65
2022/07/25 07:19:59;;;;;;;;;0.75;0.75;;;;;23.02;58.30;100801.72;5074425;28;8823;-65
2022/07/25 07:22:26;;;;;;;;;0.00;0.00;;;;;23.00;58.70;100800.31;5064019;28;8818;-66
2022/07/25 07:24:52;;;;;;;;;0.25;0.25;;;;;23.00;58.69;100798.41;5053578;28;8960;-65
2022/07/25 07:27:19;;;;;;;;;2.75;1.50;;;;;22.99;58.97;100796.75;5052907;28;8825;-65
2022/07/25 07:29:45;;;;;;;;;1.50;1.00;;;;;22.99;59.13;100807.75;5053082;28;8992;-66
2022/07/25 07:32:12;;;;;;;;;1.00;1.00;;;;;23.00;59.35;100809.38;5052987;28;8817;-65
2022/07/25 07:34:38;;;;;;;;;0.25;0.25;;;;;22.99;59.51;100805.00;5052825;28;8822;-65
2022/07/25 07:37:05;;;;;;;;;1.00;1.00;;;;;22.98;59.49;100806.09;5052515;28;8868;-65
2022/07/25 07:39:31;;;;;;;;;0.00;0.00;;;;;22.99;59.59;100804.19;5064996;28;8811;-65
2022/07/25 07:41:58;;;;;;;;;1.00;1.00;;;;;22.87;59.83;100798.97;5072974;28;8904;-66
2022/07/25 07:44:24;;;;;;;;;1.00;1.00;;;;;22.73;60.51;100817.94;5072595;28;9005;-65
2022/07/25 07:46:50;;;;;;;;;4.00;2.00;;;;;22.66;60.87;100801.72;5072325;28;8962;-65
2022/07/25 07:49:17;;;;;;;;;0.75;0.75;;;;;22.60;61.15;100786.34;5072418;28;8885;-65
2022/07/25 07:51:44;;;;;;;;;1.00;1.00;;;;;22.63;61.25;100805.00;5072534;28;8888;-66
2022/07/25 07:56:55;;;;;;;;;2.50;2.50;;;;;22.67;61.44;100808.84;5051971;28;8833;-65
2022/07/25 07:59:21;;;;;;;;;1.00;1.00;;;;;22.60;61.46;100807.47;5052131;28;8821;-65
2022/07/25 08:01:48;;;;;;;;;2.75;2.00;;;;;22.60;61.57;100808.31;5052359;28;8822;-65
2022/07/25 08:04:15;;;;;;;;;2.00;2.00;;;;;22.58;61.64;100799.53;5051866;28;8814;-65
2022/07/25 08:06:42;;;;;;;;;1.25;1.25;;;;;22.67;61.94;100806.13;5051994;28;8814;-66
2022/07/25 08:09:08;;;;;;;;;0.25;0.00;;;;;22.77;61.76;100799.81;5055461;28;8944;-65
2022/07/25 08:11:35;;;;;;;;;2.00;1.50;;;;;22.87;61.36;100796.22;5051986;28;8850;-64
2022/07/25 08:14:03;;;;;;;;;2.75;2.00;;;;;22.95;61.27;100780.03;5052209;28;8841;-66
2022/07/25 08:16:30;;;;;;;;;2.00;1.00;;;;;22.99;61.00;100784.97;5052036;28;8830;-66
2022/07/25 08:18:56;;;;;;;;;2.00;1.25;;;;;22.95;60.72;100788.25;5051938;28;8817;-66
2022/07/25 08:21:23;;;;;;;;;2.00;2.00;;;;;22.93;60.72;100795.97;5051797;28;8854;-65
2022/07/25 08:23:49;;;;;;;;;2.75;2.75;;;;;22.91;60.69;100797.34;5070498;28;8842;-65
2022/07/25 08:26:16;;;;;;;;;4.00;2.25;;;;;22.89;60.81;100789.34;5072252;28;9529;-65
2022/07/25 08:28:42;;;;;;;;;2.25;2.25;;;;;22.91;60.62;100794.59;5071610;28;8819;-65
2022/07/25 08:31:09;;;;;;;;;1.00;1.00;;;;;22.91;60.41;100784.44;5071536;28;8834;-65
2022/07/25 08:33:36;;;;;;;;;1.00;1.00;;;;;22.87;60.22;100783.31;5071857;28;8807;-65
2022/07/25 08:36:02;;;;;;;;;2.50;2.00;;;;;22.86;60.38;100787.16;5070549;28;8823;-65
2022/07/25 08:38:29;;;;;;;;;1.00;1.00;;;;;22.88;60.06;100776.72;5068603;28;8955;-65
2022/07/25 08:40:56;;;;;;;;;1.75;1.75;;;;;22.94;60.23;100789.38;5051622;28;8857;-67
2022/07/25 08:43:23;;;;;;;;;1.00;1.00;;;;;22.98;60.08;100795.13;5050985;28;9509;-66
2022/07/25 08:45:51;;;;;;;;;1.75;1.75;;;;;23.04;59.71;100804.16;5051748;28;8868;-68
2022/07/25 08:48:22;;;;;;;;;2.00;2.00;;;;;23.01;59.42;100811.06;5051695;28;8825;-66
2022/07/25 08:50:49;;;;;;;;;2.00;2.00;;;;;23.00;59.06;100814.88;5051800;28;8814;-66
2022/07/25 08:53:18;;;;;;;;;5.00;2.75;;;;;23.06;58.61;100821.19;5052155;28;8821;-64
2022/07/25 08:56:06;;;;;;;;;1.25;1.25;;;;;23.08;58.33;100821.72;5062281;28;8815;-66
2022/07/25 08:58:40;;;;;;;;;3.00;2.00;;;;;23.09;58.17;100824.22;5071637;28;8868;-67
2022/07/25 09:01:09;;;;;;;;;2.25;2.00;;;;;23.10;58.69;100820.34;5071445;28;8866;-65
2022/07/25 09:03:36;;;;;;;;;3.00;2.00;;;;;23.25;58.53;100810.41;5071782;28;8933;-65
2022/07/25 09:06:21;;;;;;;;;1.00;1.00;;;;;23.40;58.01;100808.44;5071788;28;8949;-66
2022/07/25 09:08:58;;;;;;;;;2.75;1.75;;;;;23.53;57.55;100817.19;5070224;28;8827;-65
2022/07/25 09:11:36;;;;;;;;;1.00;1.00;;;;;23.60;57.12;100804.78;5070662;28;8873;-66
2022/07/25 09:14:09;;;;;;;;;5.00;2.50;;;;;23.75;57.06;100822.34;5070991;28;8819;-66
2022/07/25 09:16:42;;;;;;;;;2.00;2.00;;;;;23.77;56.03;100829.19;5070750;28;8854;-66
2022/07/25 09:19:11;;;;;;;;;2.25;2.25;;;;;23.74;55.51;100823.44;5071670;28;8946;-66
2022/07/25 09:21:40;;;;;;;;;4.25;1.75;;;;;23.67;55.58;100819.06;5071207;28;8827;-65
2022/07/25 09:24:08;;;;;;;;;2.75;1.75;;;;;23.56;55.65;100817.44;5071589;28;8853;-66
2022/07/25 09:26:50;;;;;;;;;4.00;2.00;;;;;23.45;54.82;100824.06;5070154;28;9638;-65
2022/07/25 09:29:19;;;;;;;;;1.00;1.00;;;;;23.37;55.62;100828.22;5051196;28;8822;-65
2022/07/25 09:31:46;;;;;;;;;1.25;1.25;;;;;23.34;56.04;100825.25;5051597;28;9533;-65
2022/07/25 09:34:29;;;;;;;;;1.00;1.00;;;;;23.35;56.36;100830.44;5051423;28;8826;-65
2022/07/25 09:36:57;;;;;;;;;2.00;1.75;;;;;23.32;56.96;100849.41;5051381;28;8814;-65
2022/07/25 09:39:50;;;;;;;;;1.25;1.25;;;;;23.32;57.84;100841.97;5051491;28;8829;-67
2022/07/25 09:42:22;;;;;;;;;2.50;2.00;;;;;23.25;57.84;100851.63;5051181;28;8817;-66
2022/07/25 09:45:10;;;;;;;;;2.25;2.25;;;;;23.13;57.27;100866.50;5052274;28;8943;-65
2022/07/25 09:47:54;;;;;;;;;1.75;1.75;;;;;23.05;57.32;100861.56;5066460;28;8803;-66
2022/07/25 09:50:23;;;;;;;;;1.50;1.50;;;;;22.99;57.26;100861.84;5070076;28;8823;-65
2022/07/25 09:52:52;;;;;;;;;1.00;1.00;;;;;22.95;57.07;100867.88;5059608;28;8943;-65
2022/07/25 09:55:20;;;;;;;;;2.75;1.75;;;;;22.91;56.96;100875.00;5051269;28;9567;-65
2022/07/25 09:57:48;;;;;;;;;2.50;1.75;;;;;22.98;57.20;100868.44;5066498;28;8823;-65
2022/07/25 10:00:22;;;;;;;;;2.00;2.00;;;;;23.01;57.07;100860.47;5068912;28;8960;-65
2022/07/25 10:03:04;;;;;;;;;3.25;2.75;;;;;23.11;57.34;100865.13;5057779;28;8834;-65
2022/07/25 10:05:56;;;;;;;;;1.50;1.50;;;;;23.21;57.22;100873.31;5050709;28;8845;-65
2022/07/25 10:08:23;;;;;;;;;2.25;2.25;;;;;23.23;56.01;100873.06;5051038;28;8805;-65
2022/07/25 10:10:50;;;;;;;;;2.75;2.00;;;;;23.19;56.04;100884.59;5070975;28;8819;-66
2022/07/25 10:13:28;;;;;;;;;3.00;3.00;;;;;23.24;56.35;100874.69;5071162;28;8815;-65
2022/07/25 10:15:55;;;;;;;;;3.75;2.25;;;;;23.35;56.18;100866.16;5069517;28;8835;-66
2022/07/25 10:18:26;;;;;;;;;2.75;2.00;;;;;23.40;55.80;100868.88;5070986;28;8827;-65
2022/07/25 10:21:08;;;;;;;;;3.75;2.50;;;;;23.42;55.59;100882.34;5051980;28;8841;-65
2022/07/25 10:24:02;;;;;;;;;1.25;1.25;;;;;23.39;54.99;100885.66;5051042;28;8891;-65
2022/07/25 10:26:31;;;;;;;;;2.50;2.00;;;;;23.37;54.21;100890.59;5051276;28;8872;-66
2022/07/25 10:28:58;;;;;;;;;2.75;2.75;;;;;23.27;54.24;100891.44;5054984;28;8818;-66
2022/07/25 10:31:27;;;;;;;;;3.50;3.50;;;;;23.20;54.68;100885.41;5075108;28;8831;-66
2022/07/25 10:33:56;;;;;;;;;2.25;2.00;;;;;23.18;54.66;100891.19;5075089;28;8876;-66
2022/07/25 10:36:28;;;;;;;;;2.00;2.00;;;;;23.14;54.92;100898.34;5075169;28;8835;-66
2022/07/25 10:38:58;;;;;;;;;2.50;2.50;;;;;23.11;54.94;100900.81;5075111;28;8839;-65
2022/07/25 10:41:26;;;;;;;;;3.25;2.25;;;;;23.11;55.17;100904.38;5075128;28;8869;-66
2022/07/25 10:43:56;;;;;;;;;4.75;3.50;;;;;23.19;55.04;100903.81;5069186;28;8952;-66
2022/07/25 10:46:26;;;;;;;;;2.25;2.25;;;;;23.19;55.08;100912.06;5054760;28;8849;-66
2022/07/25 10:48:57;;;;;;;;;3.75;3.75;;;;;23.19;54.99;100900.25;5065282;28;8808;-66
2022/07/25 10:51:30;;;;;;;;;2.75;1.75;;;;;23.21;54.96;100898.03;5073143;28;8881;-66
2022/07/25 10:53:57;;;;;;;;;2.50;2.50;;;;;23.22;54.79;100912.63;5074471;28;8850;-66
2022/07/25 10:56:27;;;;;;;;;4.75;2.25;;;;;23.15;54.66;100912.88;5074175;28;8826;-66
2022/07/25 10:58:59;;;;;;;;;3.00;3.00;;;;;23.11;54.66;100917.28;5072833;28;8832;-66
2022/07/25 11:01:32;;;;;;;;;4.25;2.00;;;;;23.10;54.67;100912.91;5074498;28;9584;-67
2022/07/25 11:04:04;;;;;;;;;2.75;2.75;;;;;23.13;54.85;100918.66;5056375;28;8825;-65
2022/07/25 11:06:35;;;;;;;;;5.75;3.00;;;;;23.31;54.94;100903.53;5054414;28;9497;-66
2022/07/25 11:09:26;;;;;;;;;3.75;3.00;;;;;23.34;54.04;100910.41;5053812;28;8895;-65
2022/07/25 11:11:56;;;;;;;;;1.50;1.50;;;;;23.37;54.02;100916.13;5052573;28;8813;-66
2022/07/25 11:14:31;;;;;;;;;2.50;2.00;;;;;23.36;53.44;100917.25;5053951;28;8818;-65
2022/07/25 11:17:19;;;;;;;;;2.75;2.00;;;;;23.28;52.96;100911.50;5053645;28;8814;-65
2022/07/25 11:19:55;;;;;;;;;2.75;2.00;;;;;23.23;52.81;100923.31;5054647;28;9707;-65
2022/07/25 11:22:23;;;;;;;;;1.50;1.50;;;;;23.25;51.86;100920.28;5053641;28;8806;-65
2022/07/25 11:24:50;;;;;;;;;4.00;3.00;;;;;23.37;51.89;100927.13;5054236;28;8826;-64
2022/07/25 11:27:21;;;;;;;;;4.25;2.50;;;;;23.46;52.17;100916.41;5053524;28;8848;-65
2022/07/25 11:29:47;;;;;;;;;5.00;3.50;;;;;23.41;51.95;100924.63;5054395;28;8818;-65
2022/07/25 11:32:14;;;;;;;;;2.25;2.25;;;;;23.42;51.46;100921.63;5054507;28;8825;-65
2022/07/25 11:34:43;;;;;;;;;3.00;2.25;;;;;23.45;51.84;100932.03;5053873;28;8822;-65
2022/07/25 11:37:11;;;;;;;;;2.75;1.75;;;;;23.49;51.57;100920.50;5072997;28;10063;-66
2022/07/25 11:39:42;;;;;;;;;3.50;2.50;;;;;23.49;51.71;100921.31;5072890;28;8819;-66
2022/07/25 11:42:11;;;;;;;;;4.00;3.00;;;;;23.53;51.01;100927.91;5073648;28;8892;-66